createdAt,value
2019-04-30T00:00:47.394Z,102448.81
2019-04-30T00:03:21.576Z,102443.72
2019-04-30T00:05:57.291Z,102447.02
2019-04-30T00:08:30.147Z,102444.72
2019-04-30T00:11:01.704Z,102447.16
2019-04-30T00:13:35.869Z,102450.39
2019-04-30T00:16:07.934Z,102443.91
2019-04-30T00:18:55.432Z,102449.81
2019-04-30T00:21:18.320Z,102450.02
2019-04-30T00:23:48.408Z,102443.89
2019-04-30T00:26:21.018Z,102447.55
2019-04-30T00:28:55.219Z,102446.47
2019-04-30T00:31:29.353Z,102445.62
2019-04-30T00:34:01.665Z,102445.74
2019-04-30T00:36:37.306Z,102443.25
2019-04-30T00:39:13.154Z,102448.98
2019-04-30T00:41:45.902Z,102443.89
2019-04-30T00:44:19.830Z,102445.02
2019-04-30T00:46:50.330Z,102436.82
2019-04-30T00:49:24.172Z,102440.25
2019-04-30T00:51:58.171Z,102434.47
2019-04-30T00:54:31.036Z,102435.23
2019-04-30T00:57:07.298Z,102431.59
2019-04-30T00:59:39.874Z,102433.45
2019-04-30T01:02:11.277Z,102431.19
2019-04-30T01:04:44.993Z,102434.88
2019-04-30T01:07:17.442Z,102431.00
2019-04-30T01:09:50.040Z,102429.49
2019-04-30T01:12:29.021Z,102423.77
2019-04-30T01:14:59.011Z,102424.95
2019-04-30T01:17:31.231Z,102423.52
2019-04-30T01:20:03.458Z,102422.83
2019-04-30T01:22:35.681Z,102416.83
2019-04-30T01:25:13.314Z,102413.09
2019-04-30T01:27:45.550Z,102415.52
2019-04-30T01:30:18.704Z,102409.48
2019-04-30T01:32:56.815Z,102405.20
2019-04-30T01:35:30.925Z,102405.30
2019-04-30T01:37:59.576Z,102410.25
2019-04-30T01:40:32.295Z,102404.17
2019-04-30T01:43:04.495Z,102405.84
2019-04-30T01:45:38.583Z,102407.14
2019-04-30T01:48:12.797Z,102404.17
2019-04-30T01:50:44.724Z,102399.44
2019-04-30T01:53:18.602Z,102404.13
2019-04-30T01:55:51.078Z,102397.50
2019-04-30T01:58:23.465Z,102390.97
2019-04-30T02:00:55.713Z,102390.28
2019-04-30T02:03:29.225Z,102391.00
2019-04-30T02:06:01.613Z,102390.69
2019-04-30T02:08:33.908Z,102386.95
2019-04-30T02:11:06.173Z,102392.84
2019-04-30T02:13:39.206Z,102393.97
2019-04-30T02:16:11.756Z,102387.66
2019-04-30T02:18:43.960Z,102390.20
2019-04-30T02:21:16.205Z,102384.02
2019-04-30T02:23:49.290Z,102387.61
2019-04-30T02:26:21.744Z,102387.02
2019-04-30T02:28:54.004Z,102387.16
2019-04-30T02:31:26.335Z,102385.22
2019-04-30T02:34:00.439Z,102385.08
2019-04-30T02:36:32.561Z,102387.72
2019-04-30T02:39:04.752Z,102387.08
2019-04-30T02:41:37.125Z,102383.11
2019-04-30T02:44:11.585Z,102390.97
2019-04-30T02:46:43.990Z,102388.04
2019-04-30T02:49:16.309Z,102382.61
2019-04-30T02:51:49.954Z,102381.44
2019-04-30T02:54:24.021Z,102383.77
2019-04-30T02:56:59.413Z,102383.59
2019-04-30T02:59:30.655Z,102378.68
2019-04-30T03:02:02.897Z,102379.76
2019-04-30T03:04:35.088Z,102378.40
2019-04-30T03:07:09.662Z,102382.31
2019-04-30T03:09:41.458Z,102377.99
2019-04-30T03:12:13.766Z,102374.74
2019-04-30T03:14:45.978Z,102373.34
2019-04-30T03:17:20.813Z,102374.27
2019-04-30T03:19:52.136Z,102370.70
2019-04-30T03:22:24.337Z,102370.70
2019-04-30T03:24:56.575Z,102374.36
2019-04-30T03:27:30.143Z,102369.31
2019-04-30T03:30:02.734Z,102370.05
2019-04-30T03:32:36.969Z,102370.80
2019-04-30T03:35:12.928Z,102371.34
2019-04-30T03:37:43.287Z,102372.28
2019-04-30T03:40:15.664Z,102375.84
2019-04-30T03:42:49.441Z,102372.77
2019-04-30T03:45:21.930Z,102370.80
2019-04-30T03:47:54.180Z,102372.52
2019-04-30T03:50:32.830Z,102372.02
2019-04-30T03:53:00.698Z,102371.93
2019-04-30T03:55:32.942Z,102376.11
2019-04-30T03:58:05.180Z,102372.77
2019-04-30T04:00:42.198Z,102372.94
2019-04-30T04:03:11.339Z,102370.13
2019-04-30T04:05:43.994Z,102370.67
2019-04-30T04:08:16.235Z,102373.20
2019-04-30T04:10:52.604Z,102371.87
2019-04-30T04:13:22.803Z,102376.48
2019-04-30T04:15:55.035Z,102376.43
2019-04-30T04:18:30.070Z,102380.84
2019-04-30T04:21:11.671Z,102383.45
2019-04-30T04:23:35.184Z,102381.05
2019-04-30T04:26:09.388Z,102383.63
2019-04-30T04:28:43.570Z,102382.06
2019-04-30T04:31:15.385Z,102380.90
2019-04-30T04:33:49.571Z,102379.19
2019-04-30T04:36:21.866Z,102375.77
2019-04-30T04:38:54.133Z,102387.05
2019-04-30T04:41:26.342Z,102382.11
2019-04-30T04:44:00.188Z,102384.00
2019-04-30T04:46:32.971Z,102384.14
2019-04-30T04:49:05.232Z,102382.34
2019-04-30T04:51:41.307Z,102381.93
2019-04-30T04:54:11.412Z,102383.16
2019-04-30T04:56:43.741Z,102373.84
2019-04-30T04:59:15.857Z,102385.52
2019-04-30T05:01:49.176Z,102378.66
2019-04-30T05:04:21.374Z,102384.67
2019-04-30T05:06:53.666Z,102388.36
2019-04-30T05:09:25.918Z,102380.50
2019-04-30T05:11:58.600Z,102384.33
2019-04-30T05:14:30.864Z,102389.03
2019-04-30T05:17:05.172Z,102386.64
2019-04-30T05:19:38.541Z,102387.83
2019-04-30T05:22:11.081Z,102387.56
2019-04-30T05:24:43.320Z,102383.16
2019-04-30T05:27:15.565Z,102375.96
2019-04-30T05:29:49.739Z,102377.33
2019-04-30T05:32:21.714Z,102377.79
2019-04-30T05:34:54.015Z,102378.02
2019-04-30T05:37:26.237Z,102378.80
2019-04-30T05:40:00.898Z,102382.83
2019-04-30T05:42:32.445Z,102384.06
2019-04-30T05:45:04.685Z,102386.09
2019-04-30T05:47:38.732Z,102389.02
2019-04-30T05:50:10.833Z,102386.90
2019-04-30T05:52:43.076Z,102389.50
2019-04-30T05:55:15.315Z,102390.00
2019-04-30T05:57:55.876Z,102388.06
2019-04-30T06:00:21.842Z,102385.77
2019-04-30T06:02:54.114Z,102390.59
2019-04-30T06:05:26.343Z,102389.56
2019-04-30T06:07:59.333Z,102391.86
2019-04-30T06:10:31.713Z,102391.23
2019-04-30T06:13:04.495Z,102388.88
2019-04-30T06:15:39.111Z,102388.82
2019-04-30T06:18:13.883Z,102386.34
2019-04-30T06:20:45.633Z,102387.42
2019-04-30T06:23:19.474Z,102389.58
2019-04-30T06:25:59.611Z,102383.56
2019-04-30T06:28:25.850Z,102390.45
2019-04-30T06:30:59.099Z,102385.49
2019-04-30T06:33:31.416Z,102397.19
2019-04-30T06:36:03.817Z,102388.31
2019-04-30T06:38:36.034Z,102386.98
2019-04-30T06:41:08.738Z,102388.67
2019-04-30T06:43:40.960Z,102389.25
2019-04-30T06:46:14.291Z,102384.91
2019-04-30T06:48:49.126Z,102389.86
2019-04-30T06:51:20.450Z,102386.86
2019-04-30T06:53:52.704Z,102387.34
2019-04-30T06:56:24.950Z,102390.12
2019-04-30T06:58:58.928Z,102391.89
2019-04-30T07:01:31.357Z,102398.17
2019-04-30T07:04:03.574Z,102396.86
2019-04-30T07:06:37.117Z,102397.67
2019-04-30T07:09:10.122Z,102398.98
2019-04-30T07:11:42.574Z,102394.32
2019-04-30T07:14:14.957Z,102392.33
2019-04-30T07:16:47.184Z,102398.38
2019-04-30T07:19:32.092Z,102395.29
2019-04-30T07:21:53.646Z,102393.08
2019-04-30T07:24:25.870Z,102397.67
2019-04-30T07:26:59.695Z,102401.19
2019-04-30T07:29:32.136Z,102408.00
2019-04-30T07:32:04.356Z,102405.34
2019-04-30T07:34:39.422Z,102408.98
2019-04-30T07:37:17.289Z,102413.59
2019-04-30T07:39:46.056Z,102416.83
2019-04-30T07:42:19.212Z,102404.86
2019-04-30T07:44:51.698Z,102401.66
2019-04-30T07:47:23.962Z,102401.75
2019-04-30T07:49:56.439Z,102413.53
2019-04-30T07:52:33.302Z,102411.30
2019-04-30T07:55:02.621Z,102416.09
2019-04-30T07:57:34.885Z,102418.52
2019-04-30T08:00:09.568Z,102415.08
2019-04-30T08:02:43.684Z,102415.81
2019-04-30T08:05:15.393Z,102420.11
2019-04-30T08:07:48.970Z,102423.02
2019-04-30T08:10:21.476Z,102424.41
2019-04-30T08:12:54.160Z,102420.25
2019-04-30T08:15:26.602Z,102426.67
2019-04-30T08:18:03.510Z,102430.44
2019-04-30T08:20:33.099Z,102431.17
2019-04-30T08:23:14.087Z,102428.58
2019-04-30T08:25:39.256Z,102426.49
2019-04-30T08:28:11.684Z,102430.86
2019-04-30T08:30:43.880Z,102430.55
2019-04-30T08:33:16.224Z,102434.02
2019-04-30T08:35:50.018Z,102433.48
2019-04-30T08:38:22.405Z,102438.75
2019-04-30T08:40:58.167Z,102440.16
2019-04-30T08:43:29.243Z,102441.94
2019-04-30T08:46:01.584Z,102445.23
2019-04-30T08:48:49.926Z,102436.02
2019-04-30T08:51:09.948Z,102440.59
2019-04-30T08:53:43.758Z,102440.06
2019-04-30T08:56:15.993Z,102446.80
2019-04-30T08:58:49.081Z,102446.01
2019-04-30T09:01:21.510Z,102449.34
2019-04-30T09:03:53.614Z,102450.16
2019-04-30T09:06:25.867Z,102451.38
2019-04-30T09:08:59.340Z,102446.55
2019-04-30T09:11:38.539Z,102450.23
2019-04-30T09:14:05.785Z,102453.47
2019-04-30T09:16:39.328Z,102449.97
2019-04-30T09:19:13.264Z,102445.19
2019-04-30T09:21:45.584Z,102448.73
2019-04-30T09:24:19.086Z,102454.80
2019-04-30T09:26:51.532Z,102452.42
2019-04-30T09:29:26.090Z,102449.30
2019-04-30T09:31:59.451Z,102452.95
2019-04-30T09:34:32.165Z,102457.37
2019-04-30T09:37:04.427Z,102458.80
2019-04-30T09:39:36.691Z,102449.85
2019-04-30T09:42:09.305Z,102455.55
2019-04-30T09:44:41.567Z,102452.46
2019-04-30T09:47:14.090Z,102456.24
2019-04-30T09:49:46.317Z,102449.78
2019-04-30T09:52:19.515Z,102451.59
2019-04-30T09:54:54.186Z,102451.41
2019-04-30T09:57:26.419Z,102454.64
2019-04-30T10:00:00.959Z,102450.89
2019-04-30T10:02:33.684Z,102453.20
2019-04-30T10:05:06.417Z,102459.88
2019-04-30T10:07:40.570Z,102453.73
2019-04-30T10:10:12.933Z,102454.52
2019-04-30T10:12:45.147Z,102450.67
2019-04-30T10:15:18.907Z,102452.82
2019-04-30T10:17:51.284Z,102446.42
2019-04-30T10:20:23.503Z,102443.92
2019-04-30T10:22:55.717Z,102438.53
2019-04-30T10:25:27.947Z,102445.23
2019-04-30T10:28:01.241Z,102440.69
2019-04-30T10:30:33.649Z,102438.17
2019-04-30T10:33:05.867Z,102437.83
2019-04-30T10:35:38.629Z,102432.68
2019-04-30T10:38:10.941Z,102428.98
2019-04-30T10:40:43.156Z,102423.97
2019-04-30T10:43:15.772Z,102424.69
2019-04-30T10:45:48.590Z,102418.55
2019-04-30T10:48:21.133Z,102414.46
2019-04-30T10:50:53.393Z,102418.55
2019-04-30T10:53:25.669Z,102417.30
2019-04-30T10:55:59.518Z,102419.55
2019-04-30T10:58:31.912Z,102416.11
2019-04-30T11:01:04.137Z,102416.11
2019-04-30T11:03:36.373Z,102418.13
2019-04-30T11:06:08.774Z,102412.25
2019-04-30T11:08:41.036Z,102413.19
2019-04-30T11:11:13.269Z,102410.27
2019-04-30T11:13:45.551Z,102410.75
2019-04-30T11:16:18.885Z,102406.55
2019-04-30T11:18:51.468Z,102406.20
2019-04-30T11:21:24.080Z,102402.63
2019-04-30T11:23:56.696Z,102401.27
2019-04-30T11:26:31.739Z,102404.00
2019-04-30T11:29:03.480Z,102401.09
2019-04-30T11:31:36.046Z,102398.20
2019-04-30T11:34:08.744Z,102400.69
2019-04-30T11:36:41.026Z,102399.39
2019-04-30T11:39:13.269Z,102398.38
2019-04-30T11:41:45.787Z,102393.84
2019-04-30T11:44:30.282Z,102386.32
2019-04-30T11:46:52.050Z,102394.72
2019-04-30T11:49:24.303Z,102396.00
2019-04-30T11:51:56.644Z,102392.65
2019-04-30T11:54:29.828Z,102390.50
2019-04-30T11:57:02.304Z,102389.40
2019-04-30T11:59:34.599Z,102378.30
2019-04-30T12:02:06.871Z,102380.38
2019-04-30T12:04:39.409Z,102378.27
2019-04-30T12:07:11.793Z,102381.89
2019-04-30T12:09:44.082Z,102373.89
2019-04-30T12:12:16.306Z,102382.70
2019-04-30T12:14:49.435Z,102373.19
2019-04-30T12:17:21.725Z,102373.64
2019-04-30T12:19:54.022Z,102363.70
2019-04-30T12:22:26.285Z,102370.52
2019-04-30T12:25:03.237Z,102365.53
2019-04-30T12:27:32.460Z,102365.23
2019-04-30T12:30:04.712Z,102364.40
2019-04-30T12:32:36.937Z,102360.89
2019-04-30T12:35:09.263Z,102367.80
2019-04-30T12:37:41.521Z,102364.95
2019-04-30T12:40:25.924Z,102365.78
2019-04-30T12:42:48.725Z,102359.09
2019-04-30T12:45:20.986Z,102352.23
2019-04-30T12:47:53.268Z,102350.72
2019-04-30T12:50:25.500Z,102351.62
2019-04-30T12:52:59.433Z,102352.02
2019-04-30T12:55:31.768Z,102341.34
2019-04-30T12:58:03.992Z,102345.76
2019-04-30T13:00:36.192Z,102345.44
2019-04-30T13:03:08.461Z,102347.16
2019-04-30T13:05:40.681Z,102336.36
2019-04-30T13:08:13.325Z,102337.98
2019-04-30T13:10:46.515Z,102339.72
2019-04-30T13:13:19.731Z,102342.55
2019-04-30T13:15:52.541Z,102332.91
2019-04-30T13:18:24.773Z,102332.73
2019-04-30T13:20:58.909Z,102324.63
2019-04-30T13:23:31.439Z,102323.73
2019-04-30T13:26:03.687Z,102325.66
2019-04-30T13:28:35.926Z,102330.07
2019-04-30T13:31:09.303Z,102325.81
2019-04-30T13:33:41.985Z,102326.61
2019-04-30T13:36:14.447Z,102329.29
2019-04-30T13:38:49.632Z,102332.41
2019-04-30T13:41:20.857Z,102325.23
2019-04-30T13:43:53.541Z,102326.28
2019-04-30T13:46:28.542Z,102322.52
2019-04-30T13:49:00.972Z,102322.83
2019-04-30T13:51:33.350Z,102317.61
2019-04-30T13:54:05.533Z,102320.41
2019-04-30T13:56:39.557Z,102311.94
2019-04-30T13:59:12.022Z,102309.38
2019-04-30T14:01:44.240Z,102311.69
2019-04-30T14:04:16.904Z,102316.36
2019-04-30T14:06:49.417Z,102304.21
2019-04-30T14:09:21.644Z,102307.59
2019-04-30T14:11:53.866Z,102307.03
2019-04-30T14:14:26.152Z,102306.72
2019-04-30T14:16:58.687Z,102305.20
2019-04-30T14:19:32.525Z,102305.17
2019-04-30T14:22:04.839Z,102300.16
2019-04-30T14:24:37.077Z,102299.71
2019-04-30T14:27:09.332Z,102294.71
2019-04-30T14:29:41.602Z,102295.61
2019-04-30T14:32:13.935Z,102298.16
2019-04-30T14:34:46.132Z,102294.24
2019-04-30T14:37:18.489Z,102293.17
2019-04-30T14:39:51.409Z,102292.39
2019-04-30T14:42:24.975Z,102293.46
2019-04-30T14:44:59.668Z,102290.70
2019-04-30T14:47:32.636Z,102290.97
2019-04-30T14:50:09.716Z,102288.67
2019-04-30T14:52:41.726Z,102286.17
2019-04-30T14:55:14.174Z,102285.34
2019-04-30T14:57:46.383Z,102283.19
2019-04-30T15:00:18.634Z,102277.78
2019-04-30T15:02:50.962Z,102277.86
2019-04-30T15:05:23.160Z,102273.23
2019-04-30T15:08:00.690Z,102273.13
2019-04-30T15:10:31.723Z,102268.25
2019-04-30T15:13:03.978Z,102273.94
2019-04-30T15:15:39.108Z,102270.30
2019-04-30T15:18:11.322Z,102268.45
2019-04-30T15:20:45.764Z,102266.63
2019-04-30T15:23:21.770Z,102267.56
2019-04-30T15:25:52.295Z,102265.53
2019-04-30T15:28:32.163Z,102259.45
2019-04-30T15:30:58.733Z,102262.49
2019-04-30T15:33:31.334Z,102266.84
2019-04-30T15:36:03.596Z,102263.86
2019-04-30T15:38:35.830Z,102259.30
2019-04-30T15:41:08.055Z,102257.63
2019-04-30T15:43:40.302Z,102259.02
2019-04-30T15:46:12.558Z,102255.20
2019-04-30T15:48:44.985Z,102249.34
2019-04-30T15:51:17.284Z,102251.07
2019-04-30T15:53:49.615Z,102248.64
2019-04-30T15:56:34.101Z,102250.94
2019-04-30T15:58:55.817Z,102248.81
2019-04-30T16:01:29.095Z,102247.72
2019-04-30T16:04:02.715Z,102250.30
2019-04-30T16:06:38.545Z,102247.50
2019-04-30T16:09:10.910Z,102240.83
2019-04-30T16:11:43.565Z,102239.32
2019-04-30T16:14:15.834Z,102239.30
2019-04-30T16:16:48.054Z,102241.95
2019-04-30T16:19:20.109Z,102238.44
2019-04-30T16:21:52.343Z,102238.09
2019-04-30T16:24:24.570Z,102236.12
2019-04-30T16:26:56.807Z,102226.98
2019-04-30T16:29:29.050Z,102217.47
2019-04-30T16:32:01.291Z,102227.66
2019-04-30T16:34:33.969Z,102222.41
2019-04-30T16:37:06.210Z,102226.27
2019-04-30T16:39:39.764Z,102216.39
2019-04-30T16:42:12.198Z,102224.25
2019-04-30T16:44:44.752Z,102223.20
2019-04-30T16:47:19.917Z,102223.42
2019-04-30T16:49:52.110Z,102213.73
2019-04-30T16:52:24.147Z,102214.44
2019-04-30T16:54:56.501Z,102212.91
2019-04-30T16:57:30.371Z,102212.34
2019-04-30T17:00:03.318Z,102203.47
2019-04-30T17:02:39.217Z,102205.16
2019-04-30T17:05:11.332Z,102206.58
2019-04-30T17:07:44.412Z,102207.44
2019-04-30T17:10:20.290Z,102206.61
2019-04-30T17:12:53.557Z,102205.53
2019-04-30T17:15:25.768Z,102202.49
2019-04-30T17:17:58.688Z,102201.16
2019-04-30T17:20:31.035Z,102201.45
2019-04-30T17:23:03.249Z,102201.63
2019-04-30T17:25:35.505Z,102199.70
2019-04-30T17:28:09.202Z,102197.53
2019-04-30T17:30:41.610Z,102197.31
2019-04-30T17:33:13.806Z,102196.22
2019-04-30T17:35:46.049Z,102191.34
2019-04-30T17:38:18.307Z,102192.60
2019-04-30T17:40:50.504Z,102190.84
2019-04-30T17:43:24.398Z,102195.14
2019-04-30T17:45:58.513Z,102189.76
2019-04-30T17:48:32.595Z,102192.87
2019-04-30T17:51:05.006Z,102185.55
2019-04-30T17:53:38.900Z,102189.73
2019-04-30T17:56:11.395Z,102192.87
2019-04-30T17:58:43.697Z,102193.03
2019-04-30T18:01:15.931Z,102189.64
2019-04-30T18:03:48.774Z,102191.97
2019-04-30T18:06:21.098Z,102192.74
2019-04-30T18:08:53.318Z,102189.31
2019-04-30T18:11:25.663Z,102185.80
2019-04-30T18:13:59.003Z,102189.11
2019-04-30T18:16:31.423Z,102187.75
2019-04-30T18:19:03.672Z,102183.58
2019-04-30T18:21:35.920Z,102185.39
2019-04-30T18:24:09.521Z,102182.37
2019-04-30T18:26:41.785Z,102183.67
2019-04-30T18:29:14.575Z,102180.94
2019-04-30T18:31:46.939Z,102182.98
2019-04-30T18:34:19.907Z,102176.69
2019-04-30T18:36:54.309Z,102179.67
2019-04-30T18:39:28.772Z,102180.36
2019-04-30T18:42:01.090Z,102179.67
2019-04-30T18:44:34.053Z,102181.39
2019-04-30T18:47:06.395Z,102183.47
2019-04-30T18:49:39.588Z,102177.98
2019-04-30T18:52:11.981Z,102178.97
2019-04-30T18:54:44.240Z,102179.61
2019-04-30T18:57:16.879Z,102182.48
2019-04-30T18:59:49.179Z,102176.68
2019-04-30T19:02:21.547Z,102181.63
2019-04-30T19:04:53.790Z,102181.22
2019-04-30T19:07:26.022Z,102180.03
2019-04-30T19:09:58.894Z,102181.83
2019-04-30T19:12:31.370Z,102185.47
2019-04-30T19:15:03.704Z,102183.83
2019-04-30T19:17:36.201Z,102188.45
2019-04-30T19:20:10.594Z,102182.40
2019-04-30T19:22:42.701Z,102187.83
2019-04-30T19:25:15.044Z,102186.31
2019-04-30T19:27:47.341Z,102189.91
2019-04-30T19:30:19.656Z,102191.34
2019-04-30T19:32:52.055Z,102195.14
2019-04-30T19:35:24.278Z,102191.02
2019-04-30T19:37:56.547Z,102189.30
2019-04-30T19:40:28.986Z,102191.55
2019-04-30T19:43:01.247Z,102192.58
2019-04-30T19:45:34.047Z,102192.53
2019-04-30T19:48:08.915Z,102193.34
2019-04-30T19:50:41.295Z,102198.09
2019-04-30T19:53:13.618Z,102196.27
2019-04-30T19:55:46.082Z,102197.16
2019-04-30T19:58:27.707Z,102194.59
2019-04-30T20:00:52.700Z,102192.87
2019-04-30T20:03:25.220Z,102193.38
2019-04-30T20:05:58.595Z,102189.04
2019-04-30T20:08:31.027Z,102194.06
2019-04-30T20:11:03.292Z,102189.03
2019-04-30T20:13:37.170Z,102189.95
2019-04-30T20:16:09.831Z,102183.54
2019-04-30T20:18:42.112Z,102179.63
2019-04-30T20:21:14.422Z,102180.73
2019-04-30T20:23:46.718Z,102183.11
2019-04-30T20:26:20.040Z,102176.64
2019-04-30T20:28:52.281Z,102181.28
2019-04-30T20:31:24.507Z,102177.20
2019-04-30T20:33:56.787Z,102171.71
2019-04-30T20:36:29.062Z,102176.75
2019-04-30T20:39:02.390Z,102173.10
2019-04-30T20:41:36.247Z,102167.22
2019-04-30T20:44:10.586Z,102171.73
2019-04-30T20:46:42.912Z,102168.05
2019-04-30T20:49:19.205Z,102166.25
2019-04-30T20:51:55.549Z,102168.59
2019-04-30T20:54:25.609Z,102159.98
2019-04-30T20:56:58.939Z,102161.86
2019-04-30T20:59:32.760Z,102152.11
2019-04-30T21:02:05.651Z,102161.19
2019-04-30T21:04:37.910Z,102155.47
2019-04-30T21:07:10.138Z,102156.78
2019-04-30T21:09:42.275Z,102157.81
2019-04-30T21:12:14.511Z,102147.56
2019-04-30T21:14:48.497Z,102151.73
2019-04-30T21:17:20.885Z,102147.94
2019-04-30T21:19:52.910Z,102140.47
2019-04-30T21:22:25.130Z,102136.08
2019-04-30T21:24:58.894Z,102138.97
2019-04-30T21:27:31.581Z,102138.16
2019-04-30T21:30:03.868Z,102136.48
2019-04-30T21:32:38.750Z,102131.05
2019-04-30T21:35:11.218Z,102129.75
2019-04-30T21:37:43.716Z,102128.03
2019-04-30T21:40:15.978Z,102128.39
2019-04-30T21:42:48.234Z,102123.58
2019-04-30T21:45:20.638Z,102127.28
2019-04-30T21:47:56.514Z,102121.89
2019-04-30T21:50:26.821Z,102116.81
2019-04-30T21:52:59.782Z,102117.23
2019-04-30T21:55:32.139Z,102122.58
2019-04-30T21:58:04.298Z,102112.20
2019-04-30T22:00:36.570Z,102114.41
2019-04-30T22:03:10.471Z,102111.64
2019-04-30T22:05:42.673Z,102112.81
2019-04-30T22:08:14.897Z,102109.41
2019-04-30T22:10:47.337Z,102107.33
2019-04-30T22:13:19.573Z,102111.94
2019-04-30T22:15:51.978Z,102101.89
2019-04-30T22:18:24.208Z,102108.64
2019-04-30T22:20:56.415Z,102108.36
2019-04-30T22:23:28.677Z,102106.16
2019-04-30T22:26:00.987Z,102102.64
2019-04-30T22:28:33.432Z,102098.72
2019-04-30T22:31:05.762Z,102099.34
2019-04-30T22:33:39.235Z,102098.16
2019-04-30T22:36:11.635Z,102099.59
2019-04-30T22:38:44.920Z,102099.06
2019-04-30T22:41:17.181Z,102094.53
2019-04-30T22:43:49.468Z,102097.14
2019-04-30T22:46:23.990Z,102095.70
2019-04-30T22:48:56.247Z,102092.96
2019-04-30T22:51:30.884Z,102090.14
2019-04-30T22:54:03.153Z,102098.08
2019-04-30T22:56:35.782Z,102096.61
2019-04-30T22:59:10.252Z,102093.88
2019-04-30T23:01:44.789Z,102093.03
2019-04-30T23:04:17.022Z,102089.80
2019-04-30T23:06:49.280Z,102087.41
2019-04-30T23:09:21.516Z,102091.87
2019-04-30T23:11:53.760Z,102086.19
2019-04-30T23:14:25.965Z,102089.61
2019-04-30T23:16:58.180Z,102088.39
2019-04-30T23:19:30.454Z,102083.98
2019-04-30T23:22:02.705Z,102086.64
2019-04-30T23:24:37.306Z,102080.83
2019-04-30T23:27:09.569Z,102082.68
2019-04-30T23:29:41.767Z,102074.81
2019-04-30T23:32:14.037Z,102078.95
2019-04-30T23:34:46.508Z,102079.76
2019-04-30T23:37:18.751Z,102071.84
2019-04-30T23:39:51.046Z,102067.66
2019-04-30T23:42:23.245Z,102068.14
2019-04-30T23:44:56.907Z,102072.01
2019-04-30T23:47:28.965Z,102065.61
2019-04-30T23:50:01.265Z,102070.28
2019-04-30T23:52:33.528Z,102063.67
2019-04-30T23:55:05.759Z,102060.66
2019-04-30T23:57:38.020Z,102053.59
